createdAt,value
2019-03-09T00:00:43.324Z,73.22
2019-03-09T00:01:50.169Z,73.17
2019-03-09T00:02:57.100Z,73.20
2019-03-09T00:04:03.829Z,73.26
2019-03-09T00:05:10.628Z,73.28
2019-03-09T00:06:17.500Z,73.27
2019-03-09T00:07:24.196Z,73.29
2019-03-09T00:08:30.935Z,73.31
2019-03-09T00:09:37.794Z,73.32
2019-03-09T00:10:44.561Z,73.32
2019-03-09T00:11:51.325Z,73.28
2019-03-09T00:12:58.219Z,73.31
2019-03-09T00:14:04.955Z,73.33
2019-03-09T00:15:11.723Z,73.33
2019-03-09T00:16:18.403Z,73.38
2019-03-09T00:17:25.679Z,73.40
2019-03-09T00:18:32.424Z,73.43
2019-03-09T00:19:39.294Z,73.47
2019-03-09T00:20:46.055Z,73.46
2019-03-09T00:21:52.893Z,73.47
2019-03-09T00:22:59.603Z,73.50
2019-03-09T00:24:06.938Z,73.56
2019-03-09T00:25:14.450Z,73.60
2019-03-09T00:26:21.106Z,73.61
2019-03-09T00:27:30.129Z,73.66
2019-03-09T00:28:34.640Z,73.72
2019-03-09T00:29:41.404Z,73.78
2019-03-09T00:30:48.090Z,73.88
2019-03-09T00:31:55.047Z,73.93
2019-03-09T00:33:01.930Z,73.92
2019-03-09T00:34:08.784Z,73.98
2019-03-09T00:35:15.567Z,74.03
2019-03-09T00:36:22.530Z,74.07
2019-03-09T00:37:29.414Z,74.08
2019-03-09T00:38:36.419Z,74.11
2019-03-09T00:39:43.307Z,74.16
2019-03-09T00:40:50.080Z,74.18
2019-03-09T00:41:56.745Z,74.21
2019-03-09T00:43:03.547Z,74.20
2019-03-09T00:44:10.364Z,74.20
2019-03-09T00:45:17.240Z,74.25
2019-03-09T00:46:24.010Z,74.27
2019-03-09T00:47:30.879Z,74.30
2019-03-09T00:48:37.829Z,74.35
2019-03-09T00:49:44.660Z,74.42
2019-03-09T00:50:51.369Z,74.44
2019-03-09T00:51:58.116Z,74.44
2019-03-09T00:53:04.964Z,74.43
2019-03-09T00:54:11.872Z,74.44
2019-03-09T00:55:18.767Z,74.46
2019-03-09T00:56:25.539Z,74.46
2019-03-09T00:57:32.360Z,74.49
2019-03-09T00:58:39.275Z,74.52
2019-03-09T00:59:46.129Z,74.53
2019-03-09T01:00:52.974Z,74.53
2019-03-09T01:01:59.935Z,74.54
2019-03-09T01:03:06.736Z,74.59
2019-03-09T01:04:13.590Z,74.60
2019-03-09T01:05:20.340Z,74.66
2019-03-09T01:06:27.212Z,74.71
2019-03-09T01:07:33.875Z,74.77
2019-03-09T01:08:41.092Z,74.80
2019-03-09T01:09:48.082Z,74.85
2019-03-09T01:10:54.889Z,74.79
2019-03-09T01:12:01.681Z,74.82
2019-03-09T01:13:08.647Z,74.84
2019-03-09T01:14:15.495Z,74.85
2019-03-09T01:15:22.248Z,74.84
2019-03-09T01:16:29.139Z,74.90
2019-03-09T01:17:35.775Z,74.95
2019-03-09T01:18:43.076Z,74.98
2019-03-09T01:19:49.812Z,74.99
2019-03-09T01:20:56.573Z,75.02
2019-03-09T01:22:03.459Z,75.01
2019-03-09T01:23:10.636Z,75.03
2019-03-09T01:24:17.517Z,75.07
2019-03-09T01:25:24.421Z,75.14
2019-03-09T01:26:31.232Z,75.20
2019-03-09T01:27:38.145Z,75.19
2019-03-09T01:28:44.903Z,75.21
2019-03-09T01:29:51.736Z,75.25
2019-03-09T01:30:58.712Z,75.35
2019-03-09T01:32:05.465Z,75.42
2019-03-09T01:33:12.445Z,75.49
2019-03-09T01:34:19.232Z,75.54
2019-03-09T01:35:26.071Z,75.58
2019-03-09T01:36:32.936Z,75.58
2019-03-09T01:37:39.729Z,75.62
2019-03-09T01:38:46.600Z,75.68
2019-03-09T01:39:53.323Z,75.69
2019-03-09T01:41:00.013Z,75.73
2019-03-09T01:42:06.862Z,75.79
2019-03-09T01:43:13.742Z,75.84
2019-03-09T01:44:20.519Z,75.89
2019-03-09T01:45:27.462Z,75.93
2019-03-09T01:46:34.235Z,75.98
2019-03-09T01:47:40.999Z,76.00
2019-03-09T01:48:47.896Z,76.05
2019-03-09T01:49:54.780Z,76.12
2019-03-09T01:51:01.615Z,76.14
2019-03-09T01:52:08.460Z,76.20
2019-03-09T01:53:15.340Z,76.28
2019-03-09T01:54:22.340Z,76.36
2019-03-09T01:55:29.110Z,76.41
2019-03-09T01:56:35.832Z,76.42
2019-03-09T01:57:42.593Z,76.49
2019-03-09T01:58:49.324Z,76.54
2019-03-09T01:59:56.048Z,76.60
2019-03-09T02:01:02.801Z,76.63
2019-03-09T02:02:09.639Z,76.69
2019-03-09T02:03:16.538Z,76.74
2019-03-09T02:04:23.244Z,76.80
2019-03-09T02:05:30.161Z,76.85
2019-03-09T02:06:36.921Z,76.88
2019-03-09T02:07:43.727Z,76.93
2019-03-09T02:08:50.557Z,76.99
2019-03-09T02:09:57.547Z,77.04
2019-03-09T02:11:04.506Z,77.09
2019-03-09T02:12:11.256Z,77.15
2019-03-09T02:13:18.119Z,77.23
2019-03-09T02:14:25.024Z,77.31
2019-03-09T02:15:31.770Z,77.35
2019-03-09T02:16:39.026Z,77.40
2019-03-09T02:17:45.591Z,77.45
2019-03-09T02:18:52.464Z,77.51
2019-03-09T02:19:59.256Z,77.56
2019-03-09T02:21:06.108Z,77.59
2019-03-09T02:22:12.872Z,77.66
2019-03-09T02:23:19.743Z,77.71
2019-03-09T02:24:26.611Z,77.75
2019-03-09T02:25:33.379Z,77.80
2019-03-09T02:26:40.232Z,77.85
2019-03-09T02:27:47.104Z,77.92
2019-03-09T02:28:53.865Z,77.96
2019-03-09T02:30:00.831Z,78.04
2019-03-09T02:31:07.557Z,78.07
2019-03-09T02:32:15.229Z,78.12
2019-03-09T02:33:21.549Z,78.16
2019-03-09T02:34:28.206Z,78.17
2019-03-09T02:35:34.993Z,78.23
2019-03-09T02:36:41.823Z,78.30
2019-03-09T02:37:48.707Z,78.36
2019-03-09T02:38:55.591Z,78.41
2019-03-09T02:40:02.569Z,78.47
2019-03-09T02:41:09.089Z,78.53
2019-03-09T02:42:15.880Z,78.60
2019-03-09T02:43:22.696Z,78.66
2019-03-09T02:44:29.488Z,78.72
2019-03-09T02:45:36.281Z,78.81
2019-03-09T02:46:43.149Z,78.83
2019-03-09T02:47:49.891Z,78.89
2019-03-09T02:48:56.922Z,78.93
2019-03-09T02:50:03.770Z,79.00
2019-03-09T02:51:10.771Z,79.06
2019-03-09T02:52:17.562Z,79.13
2019-03-09T02:53:24.300Z,79.18
2019-03-09T02:54:31.166Z,79.22
2019-03-09T02:55:38.113Z,79.29
2019-03-09T02:56:45.161Z,79.35
2019-03-09T02:57:51.999Z,79.38
2019-03-09T02:58:58.773Z,79.44
2019-03-09T03:00:05.541Z,79.50
2019-03-09T03:01:12.741Z,79.54
2019-03-09T03:02:19.545Z,79.59
2019-03-09T03:03:26.760Z,79.66
2019-03-09T03:04:33.505Z,79.70
2019-03-09T03:05:40.416Z,79.75
2019-03-09T03:06:47.335Z,79.78
2019-03-09T03:07:54.295Z,79.86
2019-03-09T03:09:01.082Z,79.89
2019-03-09T03:10:08.124Z,79.97
2019-03-09T03:11:15.176Z,80.01
2019-03-09T03:12:22.274Z,80.06
2019-03-09T03:13:29.185Z,80.10
2019-03-09T03:14:36.050Z,80.16
2019-03-09T03:15:43.018Z,80.21
2019-03-09T03:16:49.809Z,80.23
2019-03-09T03:17:56.626Z,80.27
2019-03-09T03:19:03.504Z,80.31
2019-03-09T03:20:10.376Z,80.34
2019-03-09T03:21:17.293Z,80.37
2019-03-09T03:22:24.121Z,80.43
2019-03-09T03:23:30.915Z,80.49
2019-03-09T03:24:37.746Z,80.54
2019-03-09T03:25:44.626Z,80.58
2019-03-09T03:26:51.344Z,80.63
2019-03-09T03:27:58.145Z,80.66
2019-03-09T03:29:05.036Z,80.72
2019-03-09T03:30:11.991Z,80.73
2019-03-09T03:31:18.863Z,80.76
2019-03-09T03:32:25.644Z,80.80
2019-03-09T03:33:32.573Z,80.87
2019-03-09T03:34:39.431Z,80.93
2019-03-09T03:35:46.204Z,80.97
2019-03-09T03:36:53.217Z,81.02
2019-03-09T03:38:00.025Z,81.00
2019-03-09T03:39:06.941Z,81.06
2019-03-09T03:40:13.894Z,81.11
2019-03-09T03:41:20.641Z,81.15
2019-03-09T03:42:27.457Z,81.18
2019-03-09T03:43:34.194Z,81.24
2019-03-09T03:44:41.052Z,81.29
2019-03-09T03:45:47.830Z,81.32
2019-03-09T03:46:54.621Z,81.37
2019-03-09T03:48:01.461Z,81.38
2019-03-09T03:49:08.445Z,81.43
2019-03-09T03:50:15.251Z,81.49
2019-03-09T03:51:22.260Z,81.52
2019-03-09T03:52:29.276Z,81.55
2019-03-09T03:53:36.154Z,81.60
2019-03-09T03:54:42.990Z,81.65
2019-03-09T03:55:49.851Z,81.70
2019-03-09T03:56:56.738Z,81.75
2019-03-09T03:58:03.667Z,81.79
2019-03-09T03:59:10.531Z,81.85
2019-03-09T04:00:17.390Z,81.90
2019-03-09T04:01:24.285Z,81.93
2019-03-09T04:02:31.267Z,81.95
2019-03-09T04:03:38.048Z,81.98
2019-03-09T04:04:44.976Z,82.00
2019-03-09T04:05:51.873Z,82.07
2019-03-09T04:06:58.808Z,82.14
2019-03-09T04:08:05.698Z,82.13
2019-03-09T04:09:12.556Z,82.16
2019-03-09T04:10:19.421Z,82.21
2019-03-09T04:11:26.293Z,82.28
2019-03-09T04:12:33.266Z,82.34
2019-03-09T04:13:40.133Z,82.37
2019-03-09T04:14:47.096Z,82.38
2019-03-09T04:15:53.965Z,82.39
2019-03-09T04:17:00.820Z,82.44
2019-03-09T04:18:07.675Z,82.49
2019-03-09T04:19:14.501Z,82.52
2019-03-09T04:20:21.266Z,82.53
2019-03-09T04:21:28.209Z,82.57
2019-03-09T04:22:35.065Z,82.63
2019-03-09T04:23:41.884Z,82.64
2019-03-09T04:24:48.790Z,82.64
2019-03-09T04:25:55.629Z,82.67
2019-03-09T04:27:02.643Z,82.71
2019-03-09T04:28:09.514Z,82.75
2019-03-09T04:29:16.365Z,82.79
2019-03-09T04:30:23.153Z,82.82
2019-03-09T04:31:30.216Z,82.85
2019-03-09T04:32:36.987Z,82.88
2019-03-09T04:33:48.428Z,82.91
2019-03-09T04:34:50.710Z,82.94
2019-03-09T04:35:57.584Z,82.98
2019-03-09T04:37:04.354Z,83.01
2019-03-09T04:38:11.341Z,83.03
2019-03-09T04:39:18.176Z,83.07
2019-03-09T04:40:24.989Z,83.08
2019-03-09T04:41:31.899Z,83.11
2019-03-09T04:42:38.720Z,83.17
2019-03-09T04:43:45.569Z,83.20
2019-03-09T04:44:52.333Z,83.23
2019-03-09T04:45:59.181Z,83.28
2019-03-09T04:47:05.944Z,83.28
2019-03-09T04:48:12.741Z,83.31
2019-03-09T04:49:19.801Z,83.33
2019-03-09T04:50:26.598Z,83.36
2019-03-09T04:51:33.416Z,83.37
2019-03-09T04:52:40.190Z,83.39
2019-03-09T04:53:47.029Z,83.39
2019-03-09T04:54:54.093Z,83.45
2019-03-09T04:56:00.745Z,83.48
2019-03-09T04:57:07.537Z,83.52
2019-03-09T04:58:14.404Z,83.56
2019-03-09T04:59:21.202Z,83.61
2019-03-09T05:00:27.957Z,83.63
2019-03-09T05:01:34.804Z,83.70
2019-03-09T05:02:41.587Z,83.71
2019-03-09T05:03:48.568Z,83.69
2019-03-09T05:04:55.633Z,83.75
2019-03-09T05:06:02.785Z,83.78
2019-03-09T05:07:09.647Z,83.85
2019-03-09T05:08:16.544Z,83.89
2019-03-09T05:09:23.337Z,83.95
2019-03-09T05:10:30.096Z,83.98
2019-03-09T05:11:36.965Z,83.99
2019-03-09T05:12:43.793Z,84.04
2019-03-09T05:13:50.477Z,84.08
2019-03-09T05:14:57.532Z,84.10
2019-03-09T05:16:04.307Z,84.22
2019-03-09T05:17:11.167Z,84.31
2019-03-09T05:18:18.021Z,84.40
2019-03-09T05:19:24.829Z,84.46
2019-03-09T05:20:31.607Z,84.46
2019-03-09T05:21:38.425Z,84.47
2019-03-09T05:22:45.192Z,84.46
2019-03-09T05:23:52.157Z,84.47
2019-03-09T05:24:58.928Z,84.44
2019-03-09T05:26:05.692Z,84.46
2019-03-09T05:27:12.559Z,84.51
2019-03-09T05:28:19.300Z,84.52
2019-03-09T05:29:26.099Z,84.55
2019-03-09T05:30:32.877Z,84.54
2019-03-09T05:31:39.720Z,84.53
2019-03-09T05:32:46.587Z,84.59
2019-03-09T05:33:53.323Z,84.59
2019-03-09T05:35:00.329Z,84.58
2019-03-09T05:36:07.090Z,84.60
2019-03-09T05:37:13.824Z,84.64
2019-03-09T05:38:20.615Z,84.66
2019-03-09T05:39:27.409Z,84.68
2019-03-09T05:40:34.231Z,84.69
2019-03-09T05:41:41.328Z,84.72
2019-03-09T05:42:48.196Z,84.75
2019-03-09T05:43:55.055Z,84.77
2019-03-09T05:45:01.841Z,84.81
2019-03-09T05:46:08.892Z,84.81
2019-03-09T05:47:15.768Z,84.84
2019-03-09T05:48:22.653Z,84.88
2019-03-09T05:49:29.490Z,84.91
2019-03-09T05:50:36.237Z,84.94
2019-03-09T05:51:43.304Z,85.00
2019-03-09T05:52:50.204Z,85.09
2019-03-09T05:53:56.938Z,85.16
2019-03-09T05:55:03.863Z,85.22
2019-03-09T05:56:10.511Z,85.30
2019-03-09T05:57:17.339Z,85.32
2019-03-09T05:58:24.220Z,85.33
2019-03-09T05:59:31.092Z,85.30
2019-03-09T06:00:37.921Z,85.32
2019-03-09T06:01:44.704Z,85.29
2019-03-09T06:02:51.433Z,85.29
2019-03-09T06:04:00.145Z,85.25
2019-03-09T06:05:05.144Z,85.25
2019-03-09T06:06:12.293Z,85.28
2019-03-09T06:07:19.365Z,85.28
2019-03-09T06:08:26.283Z,85.30
2019-03-09T06:09:33.220Z,85.29
2019-03-09T06:10:39.990Z,85.27
2019-03-09T06:11:46.920Z,85.29
2019-03-09T06:12:53.810Z,85.29
2019-03-09T06:14:00.797Z,85.29
2019-03-09T06:15:07.777Z,85.29
2019-03-09T06:16:14.631Z,85.27
2019-03-09T06:17:21.475Z,85.27
2019-03-09T06:18:28.265Z,85.28
2019-03-09T06:19:35.017Z,85.29
2019-03-09T06:20:41.831Z,85.31
2019-03-09T06:21:48.656Z,85.30
2019-03-09T06:22:55.513Z,85.33
2019-03-09T06:24:02.445Z,85.34
2019-03-09T06:25:09.344Z,85.35
2019-03-09T06:26:16.340Z,85.37
2019-03-09T06:27:23.093Z,85.36
2019-03-09T06:28:29.944Z,85.39
2019-03-09T06:29:36.825Z,85.39
2019-03-09T06:30:43.732Z,85.39
2019-03-09T06:31:50.552Z,85.43
2019-03-09T06:32:57.532Z,85.44
2019-03-09T06:34:04.396Z,85.48
2019-03-09T06:35:11.259Z,85.52
2019-03-09T06:36:18.161Z,85.54
2019-03-09T06:37:24.719Z,85.55
2019-03-09T06:38:31.698Z,85.55
2019-03-09T06:39:38.643Z,85.54
2019-03-09T06:40:45.448Z,85.56
2019-03-09T06:41:52.224Z,85.57
2019-03-09T06:42:58.925Z,85.61
2019-03-09T06:44:05.717Z,85.65
2019-03-09T06:45:12.528Z,85.66
2019-03-09T06:46:19.253Z,85.70
2019-03-09T06:47:26.186Z,85.78
2019-03-09T06:48:33.073Z,85.87
2019-03-09T06:49:40.084Z,85.91
2019-03-09T06:50:46.968Z,85.89
2019-03-09T06:51:53.893Z,85.90
2019-03-09T06:53:02.832Z,85.91
2019-03-09T06:54:07.828Z,85.90
2019-03-09T06:55:14.731Z,85.88
2019-03-09T06:56:21.647Z,85.93
2019-03-09T06:57:28.501Z,85.93
2019-03-09T06:58:35.287Z,85.94
2019-03-09T06:59:42.141Z,85.93
2019-03-09T07:00:48.906Z,85.90
2019-03-09T07:01:55.819Z,85.92
2019-03-09T07:03:02.713Z,85.92
2019-03-09T07:04:09.867Z,85.94
2019-03-09T07:05:16.757Z,85.90
2019-03-09T07:06:23.613Z,85.92
2019-03-09T07:07:30.440Z,85.93
2019-03-09T07:08:39.371Z,85.92
2019-03-09T07:09:44.491Z,85.93
2019-03-09T07:10:50.927Z,85.92
2019-03-09T07:11:57.789Z,85.98
2019-03-09T07:13:04.587Z,86.01
2019-03-09T07:14:11.414Z,86.04
2019-03-09T07:15:18.433Z,86.08
2019-03-09T07:16:25.603Z,86.11
2019-03-09T07:17:32.327Z,86.11
2019-03-09T07:18:39.097Z,86.09
2019-03-09T07:19:46.189Z,86.12
2019-03-09T07:20:53.034Z,86.13
2019-03-09T07:21:59.920Z,86.11
2019-03-09T07:23:06.714Z,86.14
2019-03-09T07:24:13.662Z,86.14
2019-03-09T07:25:20.410Z,86.18
2019-03-09T07:26:27.299Z,86.20
2019-03-09T07:27:34.247Z,86.19
2019-03-09T07:28:41.145Z,86.19
2019-03-09T07:29:47.996Z,86.21
2019-03-09T07:30:54.840Z,86.19
2019-03-09T07:32:01.831Z,86.23
2019-03-09T07:33:08.688Z,86.25
2019-03-09T07:34:15.597Z,86.27
2019-03-09T07:35:22.514Z,86.27
2019-03-09T07:36:29.392Z,86.28
2019-03-09T07:37:37.041Z,86.30
2019-03-09T07:38:42.912Z,86.33
2019-03-09T07:39:49.676Z,86.33
2019-03-09T07:40:56.544Z,86.34
2019-03-09T07:42:03.433Z,86.39
2019-03-09T07:43:10.231Z,86.40
2019-03-09T07:44:17.044Z,86.40
2019-03-09T07:45:23.812Z,86.42
2019-03-09T07:46:30.780Z,86.41
2019-03-09T07:47:37.664Z,86.43
2019-03-09T07:48:44.553Z,86.44
2019-03-09T07:49:51.276Z,86.48
2019-03-09T07:50:58.097Z,86.46
2019-03-09T07:52:04.922Z,86.51
2019-03-09T07:53:12.115Z,86.49
2019-03-09T07:54:18.980Z,86.51
2019-03-09T07:55:25.928Z,86.54
2019-03-09T07:56:32.787Z,86.52
2019-03-09T07:57:39.694Z,86.53
2019-03-09T07:58:46.511Z,86.57
2019-03-09T07:59:53.346Z,86.55
2019-03-09T08:01:00.154Z,86.55
2019-03-09T08:02:07.129Z,86.58
2019-03-09T08:03:14.219Z,86.60
2019-03-09T08:04:20.644Z,86.62
2019-03-09T08:05:27.534Z,86.62
2019-03-09T08:06:34.394Z,86.62
2019-03-09T08:07:41.305Z,86.60
2019-03-09T08:08:48.319Z,86.61
2019-03-09T08:09:55.060Z,86.69
2019-03-09T08:11:01.956Z,86.72
2019-03-09T08:12:08.831Z,86.72
2019-03-09T08:13:15.716Z,86.70
2019-03-09T08:14:22.573Z,86.73
2019-03-09T08:15:29.436Z,86.71
2019-03-09T08:16:36.299Z,86.72
2019-03-09T08:17:43.113Z,86.77
2019-03-09T08:18:50.148Z,86.79
2019-03-09T08:19:57.000Z,86.78
2019-03-09T08:21:03.878Z,86.77
2019-03-09T08:22:10.545Z,86.74
2019-03-09T08:23:18.093Z,86.78
2019-03-09T08:24:24.819Z,86.83
2019-03-09T08:25:31.650Z,86.82
2019-03-09T08:26:38.528Z,86.83
2019-03-09T08:27:45.324Z,86.82
2019-03-09T08:28:52.116Z,86.87
2019-03-09T08:29:58.921Z,86.85
2019-03-09T08:31:05.787Z,86.83
2019-03-09T08:32:12.786Z,86.84
2019-03-09T08:33:19.548Z,86.84
2019-03-09T08:34:26.394Z,86.85
2019-03-09T08:35:33.561Z,86.86
2019-03-09T08:36:40.023Z,86.84
2019-03-09T08:37:46.923Z,86.82
2019-03-09T08:38:53.572Z,86.79
2019-03-09T08:40:00.473Z,86.82
2019-03-09T08:41:07.499Z,86.83
2019-03-09T08:42:14.361Z,86.84
2019-03-09T08:43:21.158Z,86.79
2019-03-09T08:44:27.913Z,86.79
2019-03-09T08:45:34.658Z,86.78
2019-03-09T08:46:41.509Z,86.77
2019-03-09T08:47:52.261Z,86.78
2019-03-09T08:48:55.301Z,86.78
2019-03-09T08:50:02.337Z,86.85
2019-03-09T08:51:08.817Z,86.94
2019-03-09T08:52:15.808Z,87.00
2019-03-09T08:53:22.900Z,87.04
2019-03-09T08:54:29.689Z,87.03
2019-03-09T08:55:36.617Z,86.98
2019-03-09T08:56:43.451Z,86.96
2019-03-09T08:57:50.285Z,86.92
2019-03-09T08:58:57.192Z,86.89
2019-03-09T09:00:04.149Z,86.86
2019-03-09T09:01:10.945Z,86.84
2019-03-09T09:02:17.981Z,86.83
2019-03-09T09:03:24.814Z,86.82
2019-03-09T09:04:31.719Z,86.82
2019-03-09T09:05:39.674Z,86.78
2019-03-09T09:06:45.553Z,86.81
2019-03-09T09:07:54.362Z,86.79
2019-03-09T09:08:59.313Z,86.75
2019-03-09T09:10:06.154Z,86.71
2019-03-09T09:11:13.183Z,86.72
2019-03-09T09:12:20.041Z,86.69
2019-03-09T09:13:26.867Z,86.66
2019-03-09T09:14:33.705Z,86.68
2019-03-09T09:15:40.441Z,86.65
2019-03-09T09:16:47.436Z,86.65
2019-03-09T09:17:54.322Z,86.61
2019-03-09T09:19:01.313Z,86.64
2019-03-09T09:20:08.159Z,86.62
2019-03-09T09:21:15.129Z,86.60
2019-03-09T09:22:21.994Z,86.51
2019-03-09T09:23:28.776Z,86.50
2019-03-09T09:24:35.408Z,86.48
2019-03-09T09:25:42.802Z,86.48
2019-03-09T09:26:49.686Z,86.42
2019-03-09T09:27:56.751Z,86.46
2019-03-09T09:29:03.629Z,86.47
2019-03-09T09:30:10.475Z,86.44
2019-03-09T09:31:17.751Z,86.41
2019-03-09T09:32:24.720Z,86.45
2019-03-09T09:33:31.485Z,86.42
2019-03-09T09:34:38.244Z,86.38
2019-03-09T09:35:45.115Z,86.37
2019-03-09T09:36:51.989Z,86.39
2019-03-09T09:37:58.856Z,86.41
2019-03-09T09:39:05.612Z,86.44
2019-03-09T09:40:12.584Z,86.44
2019-03-09T09:41:19.572Z,86.44
2019-03-09T09:42:26.535Z,86.39
2019-03-09T09:43:33.310Z,86.38
2019-03-09T09:44:40.169Z,86.36
2019-03-09T09:45:46.945Z,86.34
2019-03-09T09:46:53.797Z,86.37
2019-03-09T09:48:00.676Z,86.35
2019-03-09T09:49:07.644Z,86.34
2019-03-09T09:50:14.518Z,86.35
2019-03-09T09:51:21.602Z,86.33
2019-03-09T09:52:28.443Z,86.29
2019-03-09T09:53:35.246Z,86.25
2019-03-09T09:54:42.292Z,86.22
2019-03-09T09:55:49.057Z,86.20
2019-03-09T09:56:55.894Z,86.18
2019-03-09T09:58:02.878Z,86.17
2019-03-09T09:59:09.761Z,86.19
2019-03-09T10:00:16.561Z,86.17
2019-03-09T10:01:23.705Z,86.22
2019-03-09T10:02:30.649Z,86.20
2019-03-09T10:03:37.421Z,86.20
2019-03-09T10:04:44.300Z,86.16
2019-03-09T10:05:51.140Z,86.08
2019-03-09T10:06:58.025Z,86.06
2019-03-09T10:08:04.672Z,86.03
2019-03-09T10:09:11.465Z,85.96
2019-03-09T10:10:18.371Z,85.96
2019-03-09T10:11:25.296Z,85.98
2019-03-09T10:12:32.146Z,85.96
2019-03-09T10:13:39.115Z,85.87
2019-03-09T10:14:45.895Z,85.85
2019-03-09T10:15:52.669Z,85.81
2019-03-09T10:16:59.510Z,85.83
2019-03-09T10:18:06.289Z,85.79
2019-03-09T10:19:13.146Z,85.76
2019-03-09T10:20:20.053Z,85.71
2019-03-09T10:21:26.997Z,85.62
2019-03-09T10:22:34.224Z,85.64
2019-03-09T10:23:40.520Z,85.67
2019-03-09T10:24:47.408Z,85.67
2019-03-09T10:25:54.367Z,85.65
2019-03-09T10:27:01.122Z,85.65
2019-03-09T10:28:07.988Z,85.62
2019-03-09T10:29:14.960Z,85.58
2019-03-09T10:30:21.759Z,85.54
2019-03-09T10:31:28.764Z,85.48
2019-03-09T10:32:35.588Z,85.41
2019-03-09T10:33:42.340Z,85.40
2019-03-09T10:34:49.100Z,85.32
2019-03-09T10:35:55.912Z,85.30
2019-03-09T10:37:03.432Z,85.23
2019-03-09T10:38:09.813Z,85.17
2019-03-09T10:39:16.665Z,85.13
2019-03-09T10:40:23.512Z,85.10
2019-03-09T10:41:30.400Z,85.08
2019-03-09T10:42:37.238Z,85.03
2019-03-09T10:43:44.036Z,84.99
2019-03-09T10:44:51.243Z,84.96
2019-03-09T10:45:57.656Z,84.99
2019-03-09T10:47:04.420Z,84.99
2019-03-09T10:48:11.240Z,84.98
2019-03-09T10:49:18.160Z,84.95
2019-03-09T10:50:26.085Z,84.94
2019-03-09T10:51:32.332Z,84.95
2019-03-09T10:52:39.166Z,84.92
2019-03-09T10:53:46.045Z,84.86
2019-03-09T10:54:52.837Z,84.84
2019-03-09T10:55:59.663Z,84.86
2019-03-09T10:57:06.436Z,84.87
2019-03-09T10:58:13.300Z,84.85
2019-03-09T10:59:20.073Z,84.86
2019-03-09T11:00:26.969Z,84.83
2019-03-09T11:01:33.823Z,84.83
2019-03-09T11:02:40.581Z,84.75
2019-03-09T11:03:47.319Z,84.71
2019-03-09T11:04:54.228Z,84.69
2019-03-09T11:06:02.424Z,84.70
2019-03-09T11:07:07.796Z,84.70
2019-03-09T11:08:14.709Z,84.67
2019-03-09T11:09:21.598Z,84.61
2019-03-09T11:10:28.469Z,84.62
2019-03-09T11:11:35.305Z,84.61
2019-03-09T11:12:42.094Z,84.58
2019-03-09T11:13:52.055Z,84.51
2019-03-09T11:14:55.896Z,84.46
2019-03-09T11:16:02.959Z,84.42
2019-03-09T11:17:09.784Z,84.41
2019-03-09T11:18:16.565Z,84.36
2019-03-09T11:19:23.376Z,84.39
2019-03-09T11:20:30.201Z,84.40
2019-03-09T11:21:37.381Z,84.43
2019-03-09T11:22:44.205Z,84.38
2019-03-09T11:23:51.082Z,84.37
2019-03-09T11:25:03.407Z,84.37
2019-03-09T11:26:04.815Z,84.37
2019-03-09T11:27:11.668Z,84.37
2019-03-09T11:28:18.468Z,84.31
2019-03-09T11:29:25.304Z,84.26
2019-03-09T11:30:32.277Z,84.26
2019-03-09T11:31:39.233Z,84.24
2019-03-09T11:32:46.088Z,84.22
2019-03-09T11:33:52.961Z,84.17
2019-03-09T11:34:59.825Z,84.14
2019-03-09T11:36:06.728Z,84.06
2019-03-09T11:37:13.556Z,84.08
2019-03-09T11:38:20.433Z,84.09
2019-03-09T11:39:27.415Z,84.14
2019-03-09T11:40:34.201Z,84.13
2019-03-09T11:41:41.033Z,84.05
2019-03-09T11:42:48.011Z,84.02
2019-03-09T11:43:54.989Z,83.95
2019-03-09T11:45:01.849Z,83.94
2019-03-09T11:46:09.044Z,83.93
2019-03-09T11:47:15.930Z,83.89
2019-03-09T11:48:22.760Z,83.81
2019-03-09T11:49:29.725Z,83.76
2019-03-09T11:50:36.570Z,83.79
2019-03-09T11:51:43.781Z,83.83
2019-03-09T11:52:50.116Z,83.83
2019-03-09T11:53:56.961Z,83.78
2019-03-09T11:55:03.868Z,83.72
2019-03-09T11:56:10.854Z,83.69
2019-03-09T11:57:17.800Z,83.60
2019-03-09T11:58:24.581Z,83.50
2019-03-09T11:59:31.344Z,83.41
2019-03-09T12:00:38.296Z,83.40
2019-03-09T12:01:45.311Z,83.35
2019-03-09T12:02:52.150Z,83.27
2019-03-09T12:03:59.060Z,83.23
2019-03-09T12:05:05.705Z,83.19
2019-03-09T12:06:12.973Z,83.09
2019-03-09T12:07:19.753Z,83.02
2019-03-09T12:08:26.550Z,83.01
2019-03-09T12:09:33.319Z,82.96
2019-03-09T12:10:40.109Z,82.91
2019-03-09T12:11:47.094Z,82.88
2019-03-09T12:12:54.045Z,82.86
2019-03-09T12:14:00.816Z,82.87
2019-03-09T12:15:07.679Z,82.86
2019-03-09T12:16:14.661Z,82.79
2019-03-09T12:17:21.468Z,82.77
2019-03-09T12:18:28.275Z,82.75
2019-03-09T12:19:35.032Z,82.74
2019-03-09T12:20:41.926Z,82.69
2019-03-09T12:21:48.672Z,82.70
2019-03-09T12:23:01.082Z,82.68
2019-03-09T12:24:02.514Z,82.58
2019-03-09T12:25:09.491Z,82.53
2019-03-09T12:26:16.341Z,82.48
2019-03-09T12:27:23.173Z,82.39
2019-03-09T12:28:30.188Z,82.33
2019-03-09T12:29:38.641Z,82.27
2019-03-09T12:30:43.912Z,82.25
2019-03-09T12:31:50.811Z,82.14
2019-03-09T12:32:57.649Z,82.16
2019-03-09T12:34:04.400Z,82.30
2019-03-09T12:35:11.286Z,82.29
2019-03-09T12:36:18.245Z,82.17
2019-03-09T12:37:25.257Z,82.14
2019-03-09T12:38:32.200Z,82.12
2019-03-09T12:39:39.073Z,82.12
2019-03-09T12:40:46.045Z,82.08
2019-03-09T12:41:52.833Z,81.99
2019-03-09T12:42:59.677Z,81.96
2019-03-09T12:44:06.564Z,81.90
2019-03-09T12:45:13.387Z,81.82
2019-03-09T12:46:20.177Z,81.74
2019-03-09T12:47:27.666Z,81.68
2019-03-09T12:48:34.280Z,81.62
2019-03-09T12:49:41.688Z,81.56
2019-03-09T12:50:48.513Z,81.46
2019-03-09T12:51:56.556Z,81.39
2019-03-09T12:53:02.546Z,81.37
2019-03-09T12:54:09.469Z,81.28
2019-03-09T12:55:16.644Z,81.20
2019-03-09T12:56:22.985Z,81.24
2019-03-09T12:57:29.993Z,81.22
2019-03-09T12:58:36.837Z,81.14
2019-03-09T12:59:43.704Z,80.99
2019-03-09T13:00:50.573Z,80.89
2019-03-09T13:01:57.545Z,80.83
2019-03-09T13:03:04.333Z,80.70
2019-03-09T13:04:11.269Z,80.68
2019-03-09T13:05:18.148Z,80.69
2019-03-09T13:06:24.949Z,80.69
2019-03-09T13:07:31.875Z,80.49
2019-03-09T13:08:38.689Z,80.40
2019-03-09T13:09:45.451Z,80.18
2019-03-09T13:10:52.378Z,80.14
2019-03-09T13:11:59.200Z,80.03
2019-03-09T13:13:06.038Z,79.85
2019-03-09T13:14:12.773Z,79.70
2019-03-09T13:15:19.641Z,79.58
2019-03-09T13:16:26.558Z,79.54
2019-03-09T13:17:33.407Z,79.37
2019-03-09T13:18:40.336Z,79.35
2019-03-09T13:19:47.105Z,79.25
2019-03-09T13:20:54.045Z,79.21
2019-03-09T13:22:01.168Z,79.11
2019-03-09T13:23:08.147Z,79.13
2019-03-09T13:24:15.051Z,79.04
2019-03-09T13:25:22.136Z,78.96
2019-03-09T13:26:28.978Z,78.93
2019-03-09T13:27:35.848Z,78.88
2019-03-09T13:28:42.748Z,78.83
2019-03-09T13:29:49.524Z,78.85
2019-03-09T13:30:56.702Z,78.82
2019-03-09T13:32:03.501Z,78.71
2019-03-09T13:33:10.347Z,78.60
2019-03-09T13:34:17.312Z,78.54
2019-03-09T13:35:24.085Z,78.42
2019-03-09T13:36:31.050Z,78.37
2019-03-09T13:37:37.852Z,78.28
2019-03-09T13:38:44.785Z,78.22
2019-03-09T13:39:51.630Z,78.07
2019-03-09T13:40:58.508Z,77.95
2019-03-09T13:42:05.301Z,77.98
2019-03-09T13:43:12.160Z,77.96
2019-03-09T13:44:18.888Z,77.89
2019-03-09T13:45:25.778Z,77.77
2019-03-09T13:46:34.696Z,77.59
2019-03-09T13:47:39.626Z,77.62
2019-03-09T13:48:46.622Z,77.58
2019-03-09T13:49:53.570Z,77.50
2019-03-09T13:51:00.525Z,77.38
2019-03-09T13:52:07.496Z,77.33
2019-03-09T13:53:14.405Z,77.19
2019-03-09T13:54:21.126Z,77.11
2019-03-09T13:55:27.920Z,77.06
2019-03-09T13:56:34.649Z,76.95
2019-03-09T13:57:41.459Z,76.84
2019-03-09T13:58:48.314Z,76.70
2019-03-09T13:59:55.093Z,76.72
2019-03-09T14:01:01.998Z,76.59
2019-03-09T14:02:08.894Z,76.51
2019-03-09T14:03:15.891Z,76.51
2019-03-09T14:04:22.824Z,76.43
2019-03-09T14:05:29.560Z,76.37
2019-03-09T14:06:36.682Z,76.30
2019-03-09T14:07:43.540Z,76.16
2019-03-09T14:08:50.325Z,76.05
2019-03-09T14:09:57.381Z,75.91
2019-03-09T14:11:04.283Z,75.87
2019-03-09T14:12:11.101Z,75.84
2019-03-09T14:13:17.881Z,75.66
2019-03-09T14:14:24.856Z,75.49
2019-03-09T14:15:31.599Z,75.39
2019-03-09T14:16:38.356Z,75.22
2019-03-09T14:17:45.550Z,74.95
2019-03-09T14:18:52.423Z,74.86
2019-03-09T14:19:59.260Z,74.84
2019-03-09T14:21:05.976Z,74.75